sensor_id;sensor_type;location;lat;lon;timestamp;pressure;altitude;pressure_sealevel;temperature;humidity
51460;BME280;37534;39.772;2.718;2023-01-29T00:02:04;101790.47;;;6.00;100.00
51460;BME280;37534;39.772;2.718;2023-01-29T00:04:30;101782.72;;;5.94;100.00
51460;BME280;37534;39.772;2.718;2023-01-29T00:06:55;101784.47;;;5.96;100.00
51460;BME280;37534;39.772;2.718;2023-01-29T00:09:21;101787.09;;;6.01;100.00
51460;BME280;37534;39.772;2.718;2023-01-29T00:11:46;101769.94;;;5.97;100.00
51460;BME280;37534;39.772;2.718;2023-01-29T00:14:12;101790.53;;;6.03;100.00
51460;BME280;37534;39.772;2.718;2023-01-29T00:16:38;101789.53;;;5.95;100.00
51460;BME280;37534;39.772;2.718;2023-01-29T00:19:03;101773.25;;;5.89;100.00
51460;BME280;37534;39.772;2.718;2023-01-29T00:21:29;101770.84;;;5.99;100.00
51460;BME280;37534;39.772;2.718;2023-01-29T00:23:55;101786.19;;;5.96;100.00
51460;BME280;37534;39.772;2.718;2023-01-29T00:26:21;101792.22;;;6.04;100.00
51460;BME280;37534;39.772;2.718;2023-01-29T00:28:47;101776.88;;;6.07;100.00
51460;BME280;37534;39.772;2.718;2023-01-29T00:31:18;101787.03;;;5.96;100.00
51460;BME280;37534;39.772;2.718;2023-01-29T00:33:44;101792.09;;;5.95;100.00
51460;BME280;37534;39.772;2.718;2023-01-29T00:36:11;101782.78;;;6.00;100.00
51460;BME280;37534;39.772;2.718;2023-01-29T00:38:38;101787.94;;;6.01;100.00
51460;BME280;37534;39.772;2.718;2023-01-29T00:43:50;101786.97;;;5.95;100.00
51460;BME280;37534;39.772;2.718;2023-01-29T00:46:34;101775.06;;;5.97;100.00
51460;BME280;37534;39.772;2.718;2023-01-29T00:49:00;101785.56;;;6.18;100.00
51460;BME280;37534;39.772;2.718;2023-01-29T00:51:26;101795.06;;;6.32;100.00
51460;BME280;37534;39.772;2.718;2023-01-29T00:53:51;101775.47;;;6.37;100.00
51460;BME280;37534;39.772;2.718;2023-01-29T00:56:18;101779.66;;;6.28;100.00
51460;BME280;37534;39.772;2.718;2023-01-29T00:58:44;101789.88;;;6.24;100.00
51460;BME280;37534;39.772;2.718;2023-01-29T01:01:09;101777.88;;;6.21;100.00
51460;BME280;37534;39.772;2.718;2023-01-29T01:03:35;101789.91;;;6.25;100.00
51460;BME280;37534;39.772;2.718;2023-01-29T01:06:09;101786.38;;;6.16;100.00
51460;BME280;37534;39.772;2.718;2023-01-29T01:08:35;101784.72;;;6.21;100.00
51460;BME280;37534;39.772;2.718;2023-01-29T01:11:19;101789.78;;;6.13;100.00
51460;BME280;37534;39.772;2.718;2023-01-29T01:13:45;101785.44;;;6.09;100.00
51460;BME280;37534;39.772;2.718;2023-01-29T01:16:12;101781.22;;;6.13;100.00
51460;BME280;37534;39.772;2.718;2023-01-29T01:18:39;101788.09;;;6.20;100.00
51460;BME280;37534;39.772;2.718;2023-01-29T01:21:04;101792.50;;;6.32;100.00
51460;BME280;37534;39.772;2.718;2023-01-29T01:23:30;101783.09;;;6.32;100.00
51460;BME280;37534;39.772;2.718;2023-01-29T01:25:56;101796.00;;;6.40;100.00
51460;BME280;37534;39.772;2.718;2023-01-29T01:28:22;101788.31;;;6.40;100.00
51460;BME280;37534;39.772;2.718;2023-01-29T01:30:47;101788.28;;;6.37;100.00
51460;BME280;37534;39.772;2.718;2023-01-29T01:33:13;101781.50;;;6.43;100.00
51460;BME280;37534;39.772;2.718;2023-01-29T01:35:38;101784.13;;;6.51;100.00
51460;BME280;37534;39.772;2.718;2023-01-29T01:38:05;101772.16;;;6.53;100.00
51460;BME280;37534;39.772;2.718;2023-01-29T01:40:31;101765.38;;;6.58;100.00
51460;BME280;37534;39.772;2.718;2023-01-29T01:42:58;101780.00;;;6.73;100.00
51460;BME280;37534;39.772;2.718;2023-01-29T01:45:30;101777.44;;;6.75;100.00
51460;BME280;37534;39.772;2.718;2023-01-29T01:48:15;101788.63;;;6.83;100.00
51460;BME280;37534;39.772;2.718;2023-01-29T01:50:45;101790.34;;;6.81;100.00
51460;BME280;37534;39.772;2.718;2023-01-29T01:53:17;101797.16;;;6.82;100.00
51460;BME280;37534;39.772;2.718;2023-01-29T01:55:55;101792.81;;;6.73;100.00
51460;BME280;37534;39.772;2.718;2023-01-29T01:58:27;101790.34;;;6.81;100.00
51460;BME280;37534;39.772;2.718;2023-01-29T02:00:56;101804.09;;;6.94;100.00
51460;BME280;37534;39.772;2.718;2023-01-29T02:03:23;101802.34;;;6.87;100.00
51460;BME280;37534;39.772;2.718;2023-01-29T02:06:07;101790.31;;;6.78;100.00
51460;BME280;37534;39.772;2.718;2023-01-29T02:08:56;101796.44;;;6.98;100.00
51460;BME280;37534;39.772;2.718;2023-01-29T02:11:42;101792.94;;;6.90;100.00
51460;BME280;37534;39.772;2.718;2023-01-29T02:14:08;101799.81;;;6.94;100.00
51460;BME280;37534;39.772;2.718;2023-01-29T02:16:37;101792.16;;;6.99;100.00
51460;BME280;37534;39.772;2.718;2023-01-29T02:19:05;101796.44;;;7.03;100.00
51460;BME280;37534;39.772;2.718;2023-01-29T02:27:19;101796.59;;;7.23;100.00
51460;BME280;37534;39.772;2.718;2023-01-29T02:32:47;101794.88;;;7.25;100.00
51460;BME280;37534;39.772;2.718;2023-01-29T02:35:31;101791.38;;;7.14;100.00
51460;BME280;37534;39.772;2.718;2023-01-29T02:38:23;101790.56;;;7.18;100.00
51460;BME280;37534;39.772;2.718;2023-01-29T02:41:13;101796.50;;;7.14;100.00
51460;BME280;37534;39.772;2.718;2023-01-29T02:43:51;101799.88;;;7.07;100.00
51460;BME280;37534;39.772;2.718;2023-01-29T02:54:44;101806.78;;;7.11;100.00
51460;BME280;37534;39.772;2.718;2023-01-29T02:57:18;101811.91;;;7.14;100.00
51460;BME280;37534;39.772;2.718;2023-01-29T02:59:53;101813.72;;;7.33;100.00
51460;BME280;37534;39.772;2.718;2023-01-29T03:02:37;101796.59;;;7.29;100.00
51460;BME280;37534;39.772;2.718;2023-01-29T03:05:10;101794.81;;;7.19;100.00
51460;BME280;37534;39.772;2.718;2023-01-29T03:07:40;101812.88;;;7.34;100.00
51460;BME280;37534;39.772;2.718;2023-01-29T03:10:16;101805.16;;;7.30;100.00
51460;BME280;37534;39.772;2.718;2023-01-29T03:12:46;101808.56;;;7.27;100.00
51460;BME280;37534;39.772;2.718;2023-01-29T03:15:19;101815.41;;;7.28;100.00
51460;BME280;37534;39.772;2.718;2023-01-29T03:18:09;101805.13;;;7.22;100.00
51460;BME280;37534;39.772;2.718;2023-01-29T03:20:48;101821.38;;;7.22;100.00
51460;BME280;37534;39.772;2.718;2023-01-29T03:23:28;101814.50;;;7.18;100.00
51460;BME280;37534;39.772;2.718;2023-01-29T03:26:14;101807.69;;;7.23;100.00
51460;BME280;37534;39.772;2.718;2023-01-29T03:29:00;101811.97;;;7.26;100.00
51460;BME280;37534;39.772;2.718;2023-01-29T03:31:46;101808.50;;;7.16;100.00
51460;BME280;37534;39.772;2.718;2023-01-29T03:34:29;101814.47;;;7.11;100.00
51460;BME280;37534;39.772;2.718;2023-01-29T03:37:30;101828.97;;;7.06;100.00
51460;BME280;37534;39.772;2.718;2023-01-29T03:40:03;101817.81;;;6.99;100.00
51460;BME280;37534;39.772;2.718;2023-01-29T03:45:28;101817.91;;;7.17;100.00
51460;BME280;37534;39.772;2.718;2023-01-29T03:49:01;101811.13;;;7.26;100.00
51460;BME280;37534;39.772;2.718;2023-01-29T03:51:36;101807.66;;;7.19;100.00
51460;BME280;37534;39.772;2.718;2023-01-29T03:56:54;101804.13;;;6.97;100.00
51460;BME280;37534;39.772;2.718;2023-01-29T04:02:09;101804.94;;;6.96;100.00
51460;BME280;37534;39.772;2.718;2023-01-29T04:04:38;101803.31;;;7.04;100.00
51460;BME280;37534;39.772;2.718;2023-01-29T04:07:15;101801.56;;;6.98;100.00
51460;BME280;37534;39.772;2.718;2023-01-29T04:09:48;101799.88;;;7.02;100.00
51460;BME280;37534;39.772;2.718;2023-01-29T04:12:19;101800.75;;;7.10;100.00
51460;BME280;37534;39.772;2.718;2023-01-29T04:14:47;101794.81;;;7.13;100.00
51460;BME280;37534;39.772;2.718;2023-01-29T04:17:28;101804.22;;;7.17;100.00
51460;BME280;37534;39.772;2.718;2023-01-29T04:19:58;101787.09;;;7.11;100.00
51460;BME280;37534;39.772;2.718;2023-01-29T04:22:36;101799.94;;;7.13;100.00
51460;BME280;37534;39.772;2.718;2023-01-29T04:25:08;101788.81;;;7.15;100.00
51460;BME280;37534;39.772;2.718;2023-01-29T04:30:27;101790.59;;;7.26;100.00
51460;BME280;37534;39.772;2.718;2023-01-29T04:41:15;101783.75;;;7.23;100.00
51460;BME280;37534;39.772;2.718;2023-01-29T04:55:33;101802.69;;;7.50;100.00
51460;BME280;37534;39.772;2.718;2023-01-29T05:00:48;101804.34;;;7.38;100.00
51460;BME280;37534;39.772;2.718;2023-01-29T05:03:19;101804.38;;;7.43;100.00
51460;BME280;37534;39.772;2.718;2023-01-29T05:05:47;101810.34;;;7.43;100.00
51460;BME280;37534;39.772;2.718;2023-01-29T05:08:16;101810.31;;;7.34;100.00
51460;BME280;37534;39.772;2.718;2023-01-29T05:10:45;101809.41;;;7.24;100.00
51460;BME280;37534;39.772;2.718;2023-01-29T05:13:13;101822.25;;;7.23;100.00
51460;BME280;37534;39.772;2.718;2023-01-29T05:18:23;101833.38;;;7.25;100.00
51460;BME280;37534;39.772;2.718;2023-01-29T05:20:49;101825.69;;;7.25;100.00
51460;BME280;37534;39.772;2.718;2023-01-29T05:23:19;101840.22;;;7.26;100.00
51460;BME280;37534;39.772;2.718;2023-01-29T05:25:46;101831.66;;;7.24;100.00
51460;BME280;37534;39.772;2.718;2023-01-29T05:28:12;101839.28;;;7.13;100.00
51460;BME280;37534;39.772;2.718;2023-01-29T05:30:46;101837.56;;;7.14;100.00
51460;BME280;37534;39.772;2.718;2023-01-29T05:35:39;101837.50;;;6.98;100.00
51460;BME280;37534;39.772;2.718;2023-01-29T05:38:05;101835.75;;;6.97;100.00
51460;BME280;37534;39.772;2.718;2023-01-29T05:40:30;101841.78;;;7.01;100.00
51460;BME280;37534;39.772;2.718;2023-01-29T05:42:56;101844.31;;;6.98;100.00
51460;BME280;37534;39.772;2.718;2023-01-29T05:45:22;101843.47;;;7.00;100.00
51460;BME280;37534;39.772;2.718;2023-01-29T05:47:47;101849.47;;;7.02;100.00
51460;BME280;37534;39.772;2.718;2023-01-29T05:50:13;101846.06;;;7.00;100.00
51460;BME280;37534;39.772;2.718;2023-01-29T05:52:40;101852.88;;;6.98;100.00
51460;BME280;37534;39.772;2.718;2023-01-29T05:55:06;101857.19;;;7.04;100.00
51460;BME280;37534;39.772;2.718;2023-01-29T05:57:32;101864.06;;;7.08;100.00
51460;BME280;37534;39.772;2.718;2023-01-29T05:59:58;101858.06;;;7.08;100.00
51460;BME280;37534;39.772;2.718;2023-01-29T06:02:23;101866.63;;;7.10;100.00
51460;BME280;37534;39.772;2.718;2023-01-29T06:04:50;101876.09;;;7.15;100.00
51460;BME280;37534;39.772;2.718;2023-01-29T06:07:17;101868.31;;;7.04;100.00
51460;BME280;37534;39.772;2.718;2023-01-29T06:09:43;101873.50;;;7.11;100.00
51460;BME280;37534;39.772;2.718;2023-01-29T06:12:08;101878.59;;;7.08;100.00
51460;BME280;37534;39.772;2.718;2023-01-29T06:14:34;101880.38;;;7.15;100.00
51460;BME280;37534;39.772;2.718;2023-01-29T06:16:59;101889.78;;;7.19;100.00
51460;BME280;37534;39.772;2.718;2023-01-29T06:19:25;101888.97;;;7.24;100.00
51460;BME280;37534;39.772;2.718;2023-01-29T06:21:50;101899.25;;;7.23;100.00
51460;BME280;37534;39.772;2.718;2023-01-29T06:24:16;101909.50;;;7.21;100.00
51460;BME280;37534;39.772;2.718;2023-01-29T06:26:41;101899.25;;;7.23;100.00
51460;BME280;37534;39.772;2.718;2023-01-29T06:29:07;101898.38;;;7.18;100.00
51460;BME280;37534;39.772;2.718;2023-01-29T06:31:33;101924.00;;;7.19;100.00
51460;BME280;37534;39.772;2.718;2023-01-29T06:33:58;101903.56;;;7.29;100.00
51460;BME280;37534;39.772;2.718;2023-01-29T06:36:24;101900.94;;;7.18;100.00
51460;BME280;37534;39.772;2.718;2023-01-29T06:38:49;101915.50;;;7.22;100.00
51460;BME280;37534;39.772;2.718;2023-01-29T06:41:17;101911.25;;;7.27;100.00
51460;BME280;37534;39.772;2.718;2023-01-29T06:43:43;101914.72;;;7.32;100.00
51460;BME280;37534;39.772;2.718;2023-01-29T06:46:09;101926.72;;;7.36;100.00
51460;BME280;37534;39.772;2.718;2023-01-29T06:48:35;101906.06;;;7.18;100.00
51460;BME280;37534;39.772;2.718;2023-01-29T06:51:05;101934.38;;;7.30;100.00
51460;BME280;37534;39.772;2.718;2023-01-29T06:53:37;101931.81;;;7.33;100.00
51460;BME280;37534;39.772;2.718;2023-01-29T06:56:04;101942.06;;;7.27;100.00
51460;BME280;37534;39.772;2.718;2023-01-29T06:58:30;101938.63;;;7.28;100.00
51460;BME280;37534;39.772;2.718;2023-01-29T07:01:07;101948.06;;;7.29;100.00
51460;BME280;37534;39.772;2.718;2023-01-29T07:03:33;101935.09;;;7.14;100.00
51460;BME280;37534;39.772;2.718;2023-01-29T07:05:59;101945.44;;;7.20;100.00
51460;BME280;37534;39.772;2.718;2023-01-29T07:08:25;101939.38;;;7.13;100.00
51460;BME280;37534;39.772;2.718;2023-01-29T07:10:50;101947.09;;;7.15;100.00
51460;BME280;37534;39.772;2.718;2023-01-29T07:13:16;101959.97;;;7.22;100.00
51460;BME280;37534;39.772;2.718;2023-01-29T07:15:41;101962.53;;;7.21;100.00
51460;BME280;37534;39.772;2.718;2023-01-29T07:18:09;101967.69;;;7.22;100.00
51460;BME280;37534;39.772;2.718;2023-01-29T07:20:39;101957.50;;;7.30;100.00
51460;BME280;37534;39.772;2.718;2023-01-29T07:23:05;101966.84;;;7.23;100.00
51460;BME280;37534;39.772;2.718;2023-01-29T07:25:32;101968.59;;;7.29;100.00
51460;BME280;37534;39.772;2.718;2023-01-29T07:28:01;101977.97;;;7.24;100.00
51460;BME280;37534;39.772;2.718;2023-01-29T07:30:27;101971.16;;;7.29;100.00
51460;BME280;37534;39.772;2.718;2023-01-29T07:32:52;101972.16;;;7.47;100.00
51460;BME280;37534;39.772;2.718;2023-01-29T07:35:18;101967.03;;;7.51;100.00
51460;BME280;37534;39.772;2.718;2023-01-29T07:37:43;101985.88;;;7.50;100.00
51460;BME280;37534;39.772;2.718;2023-01-29T07:40:09;101990.97;;;7.46;100.00
51460;BME280;37534;39.772;2.718;2023-01-29T07:42:37;101986.72;;;7.51;100.00
51460;BME280;37534;39.772;2.718;2023-01-29T07:45:05;101991.91;;;7.55;100.00
51460;BME280;37534;39.772;2.718;2023-01-29T07:47:30;101990.16;;;7.50;100.00
51460;BME280;37534;39.772;2.718;2023-01-29T07:49:56;101993.59;;;7.52;100.00
51460;BME280;37534;39.772;2.718;2023-01-29T07:52:21;102002.97;;;7.51;100.00
51460;BME280;37534;39.772;2.718;2023-01-29T07:54:47;102010.75;;;7.57;100.00
51460;BME280;37534;39.772;2.718;2023-01-29T07:57:12;102020.31;;;7.77;100.00
51460;BME280;37534;39.772;2.718;2023-01-29T07:59:38;102012.56;;;7.72;100.00
51460;BME280;37534;39.772;2.718;2023-01-29T08:02:03;102010.84;;;7.74;100.00
51460;BME280;37534;39.772;2.718;2023-01-29T08:04:29;102006.66;;;7.90;99.85
51460;BME280;37534;39.772;2.718;2023-01-29T08:06:55;102016.97;;;7.95;100.00
51460;BME280;37534;39.772;2.718;2023-01-29T08:09:20;102005.00;;;7.98;100.00
51460;BME280;37534;39.772;2.718;2023-01-29T08:11:46;102017.94;;;8.17;100.00
51460;BME280;37534;39.772;2.718;2023-01-29T08:14:11;102025.72;;;8.26;99.96
51460;BME280;37534;39.772;2.718;2023-01-29T08:16:37;102027.44;;;8.30;99.46
51460;BME280;37534;39.772;2.718;2023-01-29T08:19:03;102045.47;;;8.38;97.93
51460;BME280;37534;39.772;2.718;2023-01-29T08:21:28;102026.63;;;8.37;97.21
51460;BME280;37534;39.772;2.718;2023-01-29T08:23:54;102051.63;;;8.66;96.86
51460;BME280;37534;39.772;2.718;2023-01-29T08:26:19;102049.09;;;8.77;96.10
51460;BME280;37534;39.772;2.718;2023-01-29T08:28:45;102053.38;;;8.78;91.11
51460;BME280;37534;39.772;2.718;2023-01-29T08:31:18;102039.63;;;8.70;90.47
51460;BME280;37534;39.772;2.718;2023-01-29T08:33:46;102061.13;;;8.87;91.53
51460;BME280;37534;39.772;2.718;2023-01-29T08:36:12;102062.03;;;9.12;91.14
51460;BME280;37534;39.772;2.718;2023-01-29T08:38:38;102081.81;;;9.40;90.76
51460;BME280;37534;39.772;2.718;2023-01-29T08:41:04;102067.25;;;9.43;85.56
51460;BME280;37534;39.772;2.718;2023-01-29T08:43:29;102062.06;;;9.57;86.48
51460;BME280;37534;39.772;2.718;2023-01-29T08:45:55;102068.09;;;9.79;88.25
51460;BME280;37534;39.772;2.718;2023-01-29T08:48:20;102084.38;;;10.00;87.60
51460;BME280;37534;39.772;2.718;2023-01-29T08:50:46;102093.81;;;10.05;89.15
51460;BME280;37534;39.772;2.718;2023-01-29T08:53:11;102098.13;;;9.93;91.24
51460;BME280;37534;39.772;2.718;2023-01-29T08:55:38;102111.91;;;9.68;93.85
51460;BME280;37534;39.772;2.718;2023-01-29T08:58:09;102114.44;;;9.22;96.61
51460;BME280;37534;39.772;2.718;2023-01-29T09:00:34;102118.56;;;8.77;100.00
51460;BME280;37534;39.772;2.718;2023-01-29T09:03:00;102123.63;;;8.59;100.00
51460;BME280;37534;39.772;2.718;2023-01-29T09:05:27;102135.47;;;8.32;100.00
51460;BME280;37534;39.772;2.718;2023-01-29T09:07:53;102125.94;;;8.14;100.00
51460;BME280;37534;39.772;2.718;2023-01-29T09:10:20;102127.47;;;7.93;100.00
51460;BME280;37534;39.772;2.718;2023-01-29T09:12:46;102127.38;;;7.79;100.00
51460;BME280;37534;39.772;2.718;2023-01-29T09:15:11;102128.16;;;7.72;100.00
51460;BME280;37534;39.772;2.718;2023-01-29T09:17:37;102135.06;;;7.78;100.00
51460;BME280;37534;39.772;2.718;2023-01-29T09:20:03;102128.22;;;7.81;100.00
51460;BME280;37534;39.772;2.718;2023-01-29T09:22:30;102124.78;;;7.76;100.00
51460;BME280;37534;39.772;2.718;2023-01-29T09:24:56;102121.41;;;7.84;100.00
51460;BME280;37534;39.772;2.718;2023-01-29T09:27:22;102121.38;;;7.80;100.00
51460;BME280;37534;39.772;2.718;2023-01-29T09:29:47;102128.38;;;7.98;100.00
51460;BME280;37534;39.772;2.718;2023-01-29T09:32:13;102131.03;;;8.09;100.00
51460;BME280;37534;39.772;2.718;2023-01-29T09:34:38;102127.69;;;8.26;100.00
51460;BME280;37534;39.772;2.718;2023-01-29T09:37:04;102133.00;;;8.44;100.00
51460;BME280;37534;39.772;2.718;2023-01-29T09:39:29;102125.34;;;8.61;100.00
51460;BME280;37534;39.772;2.718;2023-01-29T09:41:57;102135.69;;;8.67;100.00
51460;BME280;37534;39.772;2.718;2023-01-29T09:47:11;102134.75;;;8.51;100.00
51460;BME280;37534;39.772;2.718;2023-01-29T09:49:42;102145.00;;;8.48;100.00
51460;BME280;37534;39.772;2.718;2023-01-29T09:52:16;102145.06;;;8.53;100.00
51460;BME280;37534;39.772;2.718;2023-01-29T09:57:32;102139.88;;;8.48;100.00
51460;BME280;37534;39.772;2.718;2023-01-29T09:59:58;102129.59;;;8.51;100.00
51460;BME280;37534;39.772;2.718;2023-01-29T10:02:42;102143.34;;;8.60;100.00
51460;BME280;37534;39.772;2.718;2023-01-29T10:05:41;102143.38;;;8.63;100.00
51460;BME280;37534;39.772;2.718;2023-01-29T10:13:45;102159.72;;;8.69;100.00
51460;BME280;37534;39.772;2.718;2023-01-29T10:19:05;102148.66;;;8.90;100.00
51460;BME280;37534;39.772;2.718;2023-01-29T10:24:51;102138.25;;;8.67;100.00
51460;BME280;37534;39.772;2.718;2023-01-29T10:27:18;102150.28;;;8.70;100.00
51460;BME280;37534;39.772;2.718;2023-01-29T10:29:46;102146.00;;;8.69;100.00
51460;BME280;37534;39.772;2.718;2023-01-29T10:32:18;102157.94;;;8.57;100.00
51460;BME280;37534;39.772;2.718;2023-01-29T10:34:50;102138.97;;;8.43;100.00
51460;BME280;37534;39.772;2.718;2023-01-29T10:37:21;102157.97;;;8.64;100.00
51460;BME280;37534;39.772;2.718;2023-01-29T10:39:49;102128.03;;;8.81;99.33
51460;BME280;37534;39.772;2.718;2023-01-29T10:42:34;102154.78;;;9.25;98.49
51460;BME280;37534;39.772;2.718;2023-01-29T10:50:48;102156.25;;;11.18;80.93
51460;BME280;37534;39.772;2.718;2023-01-29T10:56:13;102173.00;;;11.95;73.67
51460;BME280;37534;39.772;2.718;2023-01-29T10:58:50;102182.72;;;11.57;78.16
51460;BME280;37534;39.772;2.718;2023-01-29T11:01:16;102183.84;;;11.10;80.99
51460;BME280;37534;39.772;2.718;2023-01-29T11:03:42;102200.31;;;10.88;85.06
51460;BME280;37534;39.772;2.718;2023-01-29T11:06:16;102209.88;;;10.50;89.72
51460;BME280;37534;39.772;2.718;2023-01-29T11:11:43;102177.19;;;10.15;89.17
51460;BME280;37534;39.772;2.718;2023-01-29T11:17:19;102152.25;;;9.51;94.43
51460;BME280;37534;39.772;2.718;2023-01-29T11:19:46;102159.09;;;9.52;99.32
51460;BME280;37534;39.772;2.718;2023-01-29T11:22:21;102146.19;;;9.30;100.00
51460;BME280;37534;39.772;2.718;2023-01-29T11:27:33;102131.56;;;9.14;100.00
51460;BME280;37534;39.772;2.718;2023-01-29T11:30:00;102132.41;;;9.10;100.00
51460;BME280;37534;39.772;2.718;2023-01-29T11:32:32;102137.53;;;8.99;100.00
51460;BME280;37534;39.772;2.718;2023-01-29T11:35:17;102145.25;;;9.04;100.00
51460;BME280;37534;39.772;2.718;2023-01-29T11:37:45;102134.13;;;9.03;100.00
51460;BME280;37534;39.772;2.718;2023-01-29T11:42:43;102128.97;;;9.03;100.00
51460;BME280;37534;39.772;2.718;2023-01-29T11:45:28;102122.97;;;9.17;100.00
51460;BME280;37534;39.772;2.718;2023-01-29T11:47:57;102112.66;;;9.09;100.00
51460;BME280;37534;39.772;2.718;2023-01-29T11:50:31;102119.56;;;9.25;100.00
51460;BME280;37534;39.772;2.718;2023-01-29T11:53:00;102116.13;;;9.23;100.00
51460;BME280;37534;39.772;2.718;2023-01-29T11:55:30;102098.94;;;9.10;100.00
51460;BME280;37534;39.772;2.718;2023-01-29T11:58:10;102102.38;;;9.04;100.00
51460;BME280;37534;39.772;2.718;2023-01-29T12:00:39;102098.91;;;8.94;100.00
51460;BME280;37534;39.772;2.718;2023-01-29T12:03:10;102101.50;;;8.98;100.00
51460;BME280;37534;39.772;2.718;2023-01-29T12:05:37;102079.16;;;8.81;100.00
51460;BME280;37534;39.772;2.718;2023-01-29T12:08:15;102079.16;;;8.89;100.00
51460;BME280;37534;39.772;2.718;2023-01-29T12:10:42;102085.19;;;9.02;100.00
51460;BME280;37534;39.772;2.718;2023-01-29T12:15:45;102106.72;;;9.30;100.00
51460;BME280;37534;39.772;2.718;2023-01-29T12:18:28;102129.81;;;9.02;100.00
51460;BME280;37534;39.772;2.718;2023-01-29T12:21:00;102125.47;;;8.84;100.00
51460;BME280;37534;39.772;2.718;2023-01-29T12:23:54;102138.16;;;8.46;100.00
51460;BME280;37534;39.772;2.718;2023-01-29T12:31:38;102121.66;;;8.16;100.00
51460;BME280;37534;39.772;2.718;2023-01-29T12:39:18;102099.25;;;7.96;100.00
51460;BME280;37534;39.772;2.718;2023-01-29T12:41:59;102096.53;;;7.79;100.00
51460;BME280;37534;39.772;2.718;2023-01-29T12:48:07;102086.47;;;8.07;100.00
51460;BME280;37534;39.772;2.718;2023-01-29T12:50:36;102079.53;;;7.92;100.00
51460;BME280;37534;39.772;2.718;2023-01-29T12:55:52;102069.41;;;8.22;100.00
51460;BME280;37534;39.772;2.718;2023-01-29T12:58:33;102081.50;;;8.35;100.00
51460;BME280;37534;39.772;2.718;2023-01-29T13:01:11;102066.88;;;8.29;100.00
51460;BME280;37534;39.772;2.718;2023-01-29T13:06:08;102088.16;;;8.08;100.00
51460;BME280;37534;39.772;2.718;2023-01-29T13:09:02;102079.56;;;8.00;100.00
51460;BME280;37534;39.772;2.718;2023-01-29T13:17:22;102089.00;;;7.99;100.00
51460;BME280;37534;39.772;2.718;2023-01-29T13:19:51;102078.69;;;8.03;100.00
51460;BME280;37534;39.772;2.718;2023-01-29T13:22:23;102065.84;;;8.01;100.00
51460;BME280;37534;39.772;2.718;2023-01-29T13:24:50;102065.81;;;7.95;100.00
51460;BME280;37534;39.772;2.718;2023-01-29T13:27:21;102067.59;;;8.05;100.00
51460;BME280;37534;39.772;2.718;2023-01-29T13:29:48;102062.56;;;8.27;100.00
51460;BME280;37534;39.772;2.718;2023-01-29T13:32:20;102059.16;;;8.29;100.00
51460;BME280;37534;39.772;2.718;2023-01-29T13:34:47;102055.75;;;8.38;100.00
51460;BME280;37534;39.772;2.718;2023-01-29T13:37:31;102066.97;;;8.45;100.00
51460;BME280;37534;39.772;2.718;2023-01-29T13:39:59;102055.84;;;8.44;100.00
51460;BME280;37534;39.772;2.718;2023-01-29T13:42:45;102061.03;;;8.53;100.00
51460;BME280;37534;39.772;2.718;2023-01-29T13:45:22;102049.03;;;8.63;100.00
51460;BME280;37534;39.772;2.718;2023-01-29T13:47:50;102060.97;;;8.47;100.00
51460;BME280;37534;39.772;2.718;2023-01-29T13:53:24;102054.91;;;8.37;100.00
51460;BME280;37534;39.772;2.718;2023-01-29T13:55:51;102069.63;;;8.62;100.00
51460;BME280;37534;39.772;2.718;2023-01-29T14:01:03;102061.94;;;8.68;100.00
51460;BME280;37534;39.772;2.718;2023-01-29T14:11:32;102058.59;;;9.01;100.00
51460;BME280;37534;39.772;2.718;2023-01-29T14:13:59;102052.59;;;9.07;100.00
51460;BME280;37534;39.772;2.718;2023-01-29T14:16:27;102060.34;;;9.22;100.00
51460;BME280;37534;39.772;2.718;2023-01-29T14:18:59;102068.06;;;9.28;100.00
51460;BME280;37534;39.772;2.718;2023-01-29T14:21:28;102068.03;;;9.07;100.00
51460;BME280;37534;39.772;2.718;2023-01-29T14:23:58;102072.31;;;8.92;100.00
51460;BME280;37534;39.772;2.718;2023-01-29T14:26:40;102082.53;;;8.69;100.00
51460;BME280;37534;39.772;2.718;2023-01-29T14:29:27;102085.94;;;8.68;100.00
51460;BME280;37534;39.772;2.718;2023-01-29T14:32:08;102097.03;;;8.60;100.00
51460;BME280;37534;39.772;2.718;2023-01-29T14:34:46;102097.84;;;8.46;100.00
51460;BME280;37534;39.772;2.718;2023-01-29T14:39:52;102096.88;;;8.29;100.00
51460;BME280;37534;39.772;2.718;2023-01-29T14:42:28;102120.06;;;8.33;100.00
51460;BME280;37534;39.772;2.718;2023-01-29T14:45:19;102121.72;;;8.27;100.00
51460;BME280;37534;39.772;2.718;2023-01-29T14:55:57;102120.63;;;7.91;100.00
51460;BME280;37534;39.772;2.718;2023-01-29T15:04:17;102111.63;;;7.44;100.00
51460;BME280;37534;39.772;2.718;2023-01-29T15:06:50;102112.72;;;7.68;100.00
51460;BME280;37534;39.772;2.718;2023-01-29T15:12:26;102101.53;;;7.61;100.00
51460;BME280;37534;39.772;2.718;2023-01-29T15:17:56;102113.31;;;7.37;100.00
51460;BME280;37534;39.772;2.718;2023-01-29T15:20:35;102108.88;;;7.24;100.00
51460;BME280;37534;39.772;2.718;2023-01-29T15:23:02;102104.63;;;7.26;100.00
51460;BME280;37534;39.772;2.718;2023-01-29T15:25:47;102112.22;;;7.15;100.00
51460;BME280;37534;39.772;2.718;2023-01-29T15:28:14;102116.53;;;7.21;100.00
51460;BME280;37534;39.772;2.718;2023-01-29T15:30:40;102106.22;;;7.15;100.00
51460;BME280;37534;39.772;2.718;2023-01-29T15:33:09;102109.63;;;7.11;100.00
51460;BME280;37534;39.772;2.718;2023-01-29T15:35:42;102112.16;;;7.09;100.00
51460;BME280;37534;39.772;2.718;2023-01-29T15:38:17;102108.72;;;7.09;100.00
51460;BME280;37534;39.772;2.718;2023-01-29T15:43:34;102117.19;;;7.01;100.00
51460;BME280;37534;39.772;2.718;2023-01-29T15:46:06;102105.19;;;6.99;100.00
51460;BME280;37534;39.772;2.718;2023-01-29T15:48:36;102112.91;;;6.99;100.00
51460;BME280;37534;39.772;2.718;2023-01-29T15:51:07;102108.53;;;6.92;100.00